Time;durP1;ratioP1;P1;durP2;ratioP2;P2;SDS_P1;SDS_P2;PMS_P1;PMS_P2;Temp;Humidity;BMP_temperature;BMP_pressure;BME280_temperature;BME280_humidity;BME280_pressure;Samples;Min_cycle;Max_cycle;Signal;HPM_P1;HPM_P2
2023/08/12 00:06:37;;;;;;;4.15;3.47;;;12.90;99.90;;;;;;25587685;23;20006;-47
2023/08/12 00:16:42;;;;;;;5.68;4.07;;;12.80;99.90;;;;;;25587250;23;20341;-49
2023/08/12 00:26:43;;;;;;;8.00;6.63;;;12.70;99.90;;;;;;25586739;23;20082;-49
2023/08/12 00:36:48;;;;;;;8.25;7.32;;;12.60;99.90;;;;;;25561457;23;20013;-49
2023/08/12 00:46:51;;;;;;;12.10;8.20;;;12.60;99.90;;;;;;25560165;23;20009;-48
2023/08/12 00:56:53;;;;;;;10.27;7.90;;;12.70;99.90;;;;;;25587575;23;20009;-47
2023/08/12 01:06:55;;;;;;;8.80;7.90;;;12.70;99.90;;;;;;25594204;23;20048;-49
2023/08/12 01:17:03;;;;;;;12.75;9.35;;;12.70;99.90;;;;;;25567510;23;20060;-50
2023/08/12 01:27:06;;;;;;;8.60;7.70;;;12.70;99.90;;;;;;25609073;23;20005;-48
2023/08/12 01:37:13;;;;;;;13.40;11.10;;;12.60;99.90;;;;;;25593132;23;20435;-46
2023/08/12 01:47:15;;;;;;;12.00;10.13;;;12.50;99.90;;;;;;25634077;23;20009;-46
2023/08/12 01:57:17;;;;;;;10.18;9.05;;;12.40;99.90;;;;;;25590693;23;20534;-47
2023/08/12 02:07:19;;;;;;;23.73;18.30;;;12.50;99.90;;;;;;25591845;23;20004;-47
2023/08/12 02:17:21;;;;;;;13.75;12.20;;;12.50;99.90;;;;;;25539037;23;20009;-46
2023/08/12 02:27:23;;;;;;;14.68;12.15;;;12.50;99.90;;;;;;25592117;23;20058;-50
2023/08/12 02:37:25;;;;;;;5.72;5.13;;;12.50;99.90;;;;;;25589662;23;20009;-48
2023/08/12 02:47:27;;;;;;;5.32;3.90;;;12.50;99.90;;;;;;25563383;23;20005;-50
2023/08/12 02:57:29;;;;;;;6.97;6.25;;;12.40;99.90;;;;;;25588737;23;20013;-48
2023/08/12 03:07:31;;;;;;;5.28;4.75;;;12.20;99.90;;;;;;25591836;23;20009;-49
2023/08/12 03:17:33;;;;;;;7.93;4.47;;;12.10;99.90;;;;;;25562186;23;20017;-47
2023/08/12 03:27:36;;;;;;;6.15;5.55;;;12.20;99.90;;;;;;25588434;23;20009;-53
2023/08/12 03:37:38;;;;;;;5.63;3.47;;;12.10;99.90;;;;;;25559835;23;20040;-46
2023/08/12 03:47:40;;;;;;;4.47;3.03;;;12.10;99.90;;;;;;25582138;23;20009;-49
2023/08/12 03:57:42;;;;;;;2.60;2.40;;;12.00;99.90;;;;;;25555584;23;20013;-45
2023/08/12 04:07:44;;;;;;;2.42;2.17;;;12.20;99.90;;;;;;25554426;23;20001;-47
2023/08/12 04:17:46;;;;;;;3.25;2.35;;;12.10;99.90;;;;;;25554717;23;20016;-45
2023/08/12 04:27:49;;;;;;;2.58;2.25;;;12.20;99.90;;;;;;25554860;23;20044;-49
2023/08/12 04:37:51;;;;;;;3.33;2.85;;;12.30;99.90;;;;;;25525093;23;1319922;-50
2023/08/12 04:47:53;;;;;;;4.22;2.92;;;12.30;99.90;;;;;;25560373;23;19997;-48
2023/08/12 04:57:56;;;;;;;4.22;3.28;;;12.60;99.90;;;;;;25559072;23;20005;-46
2023/08/12 05:07:58;;;;;;;6.20;5.20;;;12.70;99.90;;;;;;25559914;23;20656;-48
2023/08/12 05:18:00;;;;;;;14.75;10.48;;;12.60;99.90;;;;;;25558652;23;20060;-48
2023/08/12 05:28:04;;;;;;;16.00;14.05;;;12.70;99.90;;;;;;25584649;23;20013;-47
2023/08/12 05:38:06;;;;;;;22.27;18.27;;;12.90;99.90;;;;;;25585197;23;20452;-49
2023/08/12 05:48:08;;;;;;;33.95;25.70;;;13.20;99.90;;;;;;25590417;23;20001;-48
2023/08/12 05:58:10;;;;;;;27.98;22.38;;;13.40;99.90;;;;;;25591903;23;20005;-51
2023/08/12 06:08:12;;;;;;;20.88;18.52;;;13.60;99.90;;;;;;25591694;23;20005;-46
2023/08/12 06:18:14;;;;;;;29.27;24.15;;;13.80;99.90;;;;;;25591252;23;20002;-47
2023/08/12 06:28:16;;;;;;;32.80;25.85;;;14.20;99.90;;;;;;25590271;23;20012;-50
2023/08/12 06:38:18;;;;;;;12.57;10.95;;;14.60;99.90;;;;;;25590303;23;20012;-45
2023/08/12 06:48:19;;;;;;;8.35;7.38;;;17.10;99.90;;;;;;25590056;23;20329;-55
2023/08/12 06:58:21;;;;;;;7.00;6.30;;;20.40;99.90;;;;;;25587631;23;20005;-54
2023/08/12 07:08:23;;;;;;;5.47;4.88;;;22.40;99.90;;;;;;25591472;23;20009;-50
2023/08/12 07:18:25;;;;;;;3.88;3.58;;;23.00;99.90;;;;;;25587021;23;20016;-57
2023/08/12 07:28:27;;;;;;;5.55;4.85;;;23.70;99.90;;;;;;25588490;23;20005;-57
2023/08/12 07:38:29;;;;;;;6.07;4.88;;;24.40;99.90;;;;;;25587751;23;20036;-48
2023/08/12 07:48:31;;;;;;;7.88;4.68;;;24.40;99.90;;;;;;25584689;23;20012;-58
2023/08/12 07:58:33;;;;;;;6.57;5.55;;;24.40;99.90;;;;;;25586554;23;20069;-58
2023/08/12 08:08:34;;;;;;;6.80;6.20;;;24.90;99.90;;;;;;25586094;23;20009;-57
2023/08/12 08:18:36;;;;;;;6.82;6.22;;;25.00;99.90;;;;;;25586629;23;20013;-57
2023/08/12 08:28:38;;;;;;;7.93;7.32;;;24.90;99.90;;;;;;25586642;23;20372;-57
2023/08/12 08:38:40;;;;;;;8.63;7.72;;;24.20;99.90;;;;;;25586016;23;20036;-55
2023/08/12 08:48:46;;;;;;;8.20;7.40;;;23.10;99.90;;;;;;25584846;23;20059;-55
2023/08/12 08:58:48;;;;;;;8.65;7.85;;;22.70;99.90;;;;;;25625943;23;20091;-54
2023/08/12 09:08:52;;;;;;;8.45;7.57;;;22.20;99.90;;;;;;25584653;23;20002;-56
2023/08/12 09:18:57;;;;;;;8.40;7.60;;;22.00;99.90;;;;;;25586897;23;20030;-54
2023/08/12 09:29:00;;;;;;;10.27;9.02;;;22.10;99.90;;;;;;25591430;23;20009;-54
2023/08/12 09:39:08;;;;;;;10.60;9.52;;;21.80;99.90;;;;;;25565071;23;20043;-49
2023/08/12 09:49:10;;;;;;;8.70;7.90;;;21.90;99.90;;;;;;25631758;23;20012;-55
2023/08/12 09:59:15;;;;;;;8.63;7.70;;;22.30;99.90;;;;;;25590961;23;20005;-48
2023/08/12 10:09:18;;;;;;;9.40;7.18;;;23.10;99.90;;;;;;25562382;23;20009;-58
2023/08/12 10:19:22;;;;;;;10.27;7.85;;;24.60;99.90;;;;;;25590191;23;20519;-57
2023/08/12 10:29:24;;;;;;;7.43;6.78;;;25.20;99.90;;;;;;25563396;23;20009;-57
2023/08/12 10:39:28;;;;;;;7.75;6.95;;;25.40;99.90;;;;;;25590113;23;20017;-57
2023/08/12 10:49:39;;;;;;;11.20;8.48;;;25.30;99.90;;;;;;25588825;23;20314;-57
2023/08/12 10:59:48;;;;;;;10.75;9.73;;;25.40;99.90;;;;;;25627899;23;20005;-50
2023/08/12 11:09:53;;;;;;;9.60;8.75;;;25.30;99.90;;;;;;25628605;23;20063;-57
2023/08/12 11:19:58;;;;;;;12.00;9.30;;;25.20;99.90;;;;;;25628841;23;20013;-57
2023/08/12 11:30:00;;;;;;;8.68;7.88;;;24.90;99.90;;;;;;25586917;23;20005;-57
2023/08/12 11:40:04;;;;;;;8.68;7.95;;;25.30;99.90;;;;;;25587438;23;20009;-57
2023/08/12 11:50:09;;;;;;;9.50;8.55;;;25.50;99.90;;;;;;25533965;23;20021;-56
2023/08/12 12:00:14;;;;;;;7.47;6.78;;;25.10;99.90;;;;;;25627897;23;20440;-50
2023/08/12 12:10:35;;;;;;;8.30;7.50;;;24.90;99.90;;;;;;25585227;23;20506;-56
2023/08/12 12:20:53;;;;;;;7.45;6.05;;;24.70;99.90;;;;;;25560663;23;20515;-57
2023/08/12 12:30:57;;;;;;;9.52;7.00;;;24.30;99.90;;;;;;25627014;23;20036;-56
2023/08/12 12:40:59;;;;;;;7.82;7.10;;;24.30;99.90;;;;;;25586424;23;20013;-57
2023/08/12 12:51:01;;;;;;;7.28;6.63;;;24.80;99.90;;;;;;25584215;23;20016;-50
2023/08/12 13:01:06;;;;;;;6.78;6.07;;;25.00;99.90;;;;;;25593366;23;20027;-57
2023/08/12 13:11:08;;;;;;;7.32;6.38;;;25.40;99.90;;;;;;25592220;23;20036;-57
2023/08/12 13:21:10;;;;;;;5.70;5.20;;;25.90;99.90;;;;;;25592541;23;20005;-58
2023/08/12 13:31:12;;;;;;;8.10;5.80;;;26.10;99.90;;;;;;25592588;23;20012;-57
2023/08/12 13:41:15;;;;;;;7.00;6.30;;;26.10;99.90;;;;;;25590720;23;20068;-57
2023/08/12 13:51:17;;;;;;;5.68;5.18;;;26.00;99.90;;;;;;25592380;23;20009;-57
2023/08/12 14:01:19;;;;;;;5.68;4.95;;;26.50;99.90;;;;;;25588834;23;20306;-57
2023/08/12 14:11:20;;;;;;;5.88;5.38;;;26.70;99.90;;;;;;25588163;23;20012;-57
2023/08/12 14:21:22;;;;;;;6.95;5.22;;;26.40;99.90;;;;;;25590320;23;20077;-57
2023/08/12 14:31:25;;;;;;;6.95;6.25;;;26.10;99.90;;;;;;25589579;23;20001;-47
2023/08/12 14:41:27;;;;;;;7.53;5.80;;;26.10;99.90;;;;;;25589093;23;20188;-56
2023/08/12 14:51:29;;;;;;;7.95;7.20;;;25.70;99.90;;;;;;25588926;23;20384;-57
2023/08/12 15:01:32;;;;;;;9.15;7.30;;;25.50;99.90;;;;;;25587856;23;20377;-54
2023/08/12 15:11:35;;;;;;;9.18;6.72;;;24.80;99.90;;;;;;25587792;23;20013;-54
2023/08/12 15:21:38;;;;;;;8.35;7.55;;;24.30;99.90;;;;;;25587318;23;20008;-55
2023/08/12 15:31:41;;;;;;;8.27;6.53;;;23.70;99.90;;;;;;25562693;23;20012;-54
2023/08/12 15:41:44;;;;;;;10.00;7.30;;;24.00;99.90;;;;;;25587318;23;20013;-56
2023/08/12 15:51:46;;;;;;;6.35;5.72;;;24.10;99.90;;;;;;25587349;23;20429;-56
2023/08/12 16:01:48;;;;;;;7.90;7.20;;;24.30;99.90;;;;;;25585912;23;20009;-56
2023/08/12 16:11:50;;;;;;;8.52;6.57;;;24.10;99.90;;;;;;25588248;23;20001;-56
2023/08/12 16:21:52;;;;;;;9.95;6.95;;;23.60;99.90;;;;;;25586234;23;19997;-52
2023/08/12 16:31:54;;;;;;;12.32;10.30;;;22.70;99.90;;;;;;25585150;23;20305;-53
2023/08/12 16:41:57;;;;;;;11.88;10.07;;;21.60;99.90;;;;;;25584593;23;20017;-54
2023/08/12 16:51:59;;;;;;;12.80;11.23;;;20.60;99.90;;;;;;25585009;23;20089;-54
2023/08/12 17:02:01;;;;;;;15.95;14.45;;;19.80;99.90;;;;;;25585798;23;20005;-50
2023/08/12 17:12:04;;;;;;;16.75;15.05;;;19.10;99.90;;;;;;25585607;23;20005;-47
2023/08/12 17:22:07;;;;;;;17.88;16.08;;;18.60;99.90;;;;;;25585632;23;20096;-50
2023/08/12 17:32:09;;;;;;;20.40;18.30;;;18.20;99.90;;;;;;25559564;23;20013;-53
2023/08/12 17:42:10;;;;;;;31.27;27.95;;;17.80;99.90;;;;;;25586940;23;20021;-48
2023/08/12 17:52:12;;;;;;;26.63;23.90;;;17.50;99.90;;;;;;25592507;23;20001;-51
2023/08/12 18:02:14;;;;;;;29.23;25.98;;;17.20;99.90;;;;;;25591921;23;20009;-50
2023/08/12 18:12:17;;;;;;;25.13;22.33;;;16.90;99.90;;;;;;25591561;23;20005;-48
2023/08/12 18:22:19;;;;;;;57.67;47.25;;;16.80;99.90;;;;;;25592357;23;20380;-49
2023/08/12 18:32:21;;;;;;;29.05;25.85;;;16.70;99.90;;;;;;25590302;23;20005;-54
2023/08/12 18:42:23;;;;;;;28.13;25.13;;;16.50;99.90;;;;;;25589493;23;20083;-50
2023/08/12 18:52:25;;;;;;;27.45;24.50;;;16.50;99.90;;;;;;25588101;23;20009;-50
2023/08/12 19:02:27;;;;;;;30.77;25.55;;;16.40;99.90;;;;;;25588230;23;20009;-53
2023/08/12 19:12:30;;;;;;;39.40;35.08;;;16.30;99.90;;;;;;25587242;23;20036;-49
2023/08/12 19:22:32;;;;;;;63.08;49.80;;;16.10;99.90;;;;;;25585750;23;20009;-49
2023/08/12 19:32:54;;;;;;;33.40;29.08;;;15.90;99.90;;;;;;25585149;23;20009;-52
2023/08/12 19:42:56;;;;;;;37.55;31.83;;;15.80;99.90;;;;;;25595136;23;20127;-52
2023/08/12 19:52:58;;;;;;;35.40;30.42;;;15.70;99.90;;;;;;25585390;23;20313;-50
2023/08/12 20:03:01;;;;;;;38.15;33.20;;;15.70;99.90;;;;;;25580393;23;20012;-53
2023/08/12 20:13:04;;;;;;;46.80;33.88;;;15.60;99.90;;;;;;25583184;23;20009;-54
2023/08/12 20:23:06;;;;;;;54.05;41.47;;;15.60;99.90;;;;;;25583780;23;20067;-53
2023/08/12 20:33:09;;;;;;;48.08;40.40;;;15.50;99.90;;;;;;25584180;23;20340;-54
2023/08/12 20:43:12;;;;;;;36.20;28.92;;;15.50;99.90;;;;;;25556362;23;20028;-48
2023/08/12 20:53:15;;;;;;;33.58;28.90;;;15.40;99.90;;;;;;25583450;23;20013;-52
2023/08/12 21:03:18;;;;;;;42.80;35.90;;;15.50;99.90;;;;;;25584981;23;20009;-53
2023/08/12 21:13:21;;;;;;;38.10;27.90;;;15.40;99.90;;;;;;25584432;23;20009;-51
2023/08/12 21:23:23;;;;;;;34.13;30.42;;;15.30;99.90;;;;;;25591171;23;20012;-54
2023/08/12 21:33:25;;;;;;;39.72;32.55;;;15.40;99.90;;;;;;25590531;23;20004;-52
2023/08/12 21:43:27;;;;;;;33.05;29.50;;;15.50;99.90;;;;;;25564783;23;20337;-54
2023/08/12 21:53:29;;;;;;;38.20;31.70;;;16.30;99.90;;;;;;25591280;23;20009;-48
2023/08/12 22:03:31;;;;;;;32.55;27.38;;;16.30;99.90;;;;;;25590195;23;20445;-53
2023/08/12 22:13:32;;;;;;;27.20;24.25;;;15.80;99.90;;;;;;25587524;23;20331;-53
2023/08/12 22:23:35;;;;;;;37.90;31.98;;;15.70;99.90;;;;;;25589658;23;20344;-53
2023/08/12 22:33:37;;;;;;;41.13;34.40;;;15.50;99.90;;;;;;25589044;23;20009;-49
2023/08/12 22:43:39;;;;;;;44.50;34.70;;;15.40;99.90;;;;;;25589760;23;20044;-53
2023/08/12 22:53:41;;;;;;;41.55;33.75;;;15.20;99.90;;;;;;25589166;23;20310;-51
2023/08/12 23:03:42;;;;;;;38.58;32.67;;;15.00;99.90;;;;;;25590085;23;20016;-50
2023/08/12 23:13:44;;;;;;;41.17;32.63;;;15.00;99.90;;;;;;25588828;23;20061;-53
2023/08/12 23:23:46;;;;;;;26.00;21.98;;;15.00;99.90;;;;;;25588137;23;20005;-52
2023/08/12 23:33:48;;;;;;;25.85;22.23;;;15.10;99.90;;;;;;25588372;23;20005;-47
2023/08/12 23:43:50;;;;;;;19.88;17.92;;;15.30;99.90;;;;;;25587111;23;20453;-52
2023/08/12 23:53:52;;;;;;;16.25;13.85;;;15.20;99.90;;;;;;25587239;23;20009;-50
